createdAt,value
2018-05-10T00:02:20.567Z,17.92
2018-05-10T00:04:48.352Z,18.15
2018-05-10T00:07:16.019Z,13.50
2018-05-10T00:09:43.677Z,11.55
2018-05-10T00:12:11.321Z,10.40
2018-05-10T00:14:38.906Z,10.15
2018-05-10T00:17:06.582Z,9.77
2018-05-10T00:19:34.219Z,9.80
2018-05-10T00:22:02.043Z,9.30
2018-05-10T00:24:30.716Z,7.95
2018-05-10T00:26:58.406Z,9.45
2018-05-10T00:29:26.182Z,8.10
2018-05-10T00:31:53.898Z,9.75
2018-05-10T00:34:21.512Z,8.45
2018-05-10T00:36:49.192Z,7.50
2018-05-10T00:39:17.515Z,7.90
2018-05-10T00:41:45.089Z,7.72
2018-05-10T00:44:13.468Z,7.57
2018-05-10T00:46:41.220Z,6.25
2018-05-10T00:49:09.634Z,5.90
2018-05-10T00:51:37.972Z,5.75
2018-05-10T00:54:05.584Z,5.05
2018-05-10T00:56:33.234Z,4.93
2018-05-10T00:59:00.750Z,5.22
2018-05-10T01:01:28.361Z,4.97
2018-05-10T01:03:56.053Z,5.78
2018-05-10T01:06:24.500Z,5.30
2018-05-10T01:08:52.294Z,5.85
2018-05-10T01:11:21.692Z,5.05
2018-05-10T01:13:49.337Z,5.20
2018-05-10T01:16:17.006Z,7.22
2018-05-10T01:18:44.670Z,5.97
2018-05-10T01:21:12.307Z,6.90
2018-05-10T01:23:39.936Z,5.85
2018-05-10T01:26:08.308Z,4.97
2018-05-10T01:28:35.914Z,6.93
2018-05-10T01:31:03.554Z,6.62
2018-05-10T01:33:32.265Z,7.47
2018-05-10T01:36:11.758Z,9.27
2018-05-10T01:38:40.148Z,10.00
2018-05-10T01:41:07.761Z,10.63
2018-05-10T01:43:36.468Z,9.27
2018-05-10T01:46:05.427Z,7.28
2018-05-10T01:48:33.269Z,6.95
2018-05-10T01:51:01.679Z,5.18
2018-05-10T01:53:33.934Z,4.47
2018-05-10T01:56:01.643Z,3.80
2018-05-10T01:58:29.849Z,3.33
2018-05-10T02:00:57.453Z,3.10
2018-05-10T02:03:25.072Z,3.08
2018-05-10T02:05:59.996Z,3.08
2018-05-10T02:08:35.418Z,2.15
2018-05-10T02:11:03.103Z,2.30
2018-05-10T02:13:30.708Z,2.40
2018-05-10T02:15:58.435Z,2.37
2018-05-10T02:18:26.829Z,2.20
2018-05-10T02:20:55.207Z,1.87
2018-05-10T02:23:23.579Z,2.42
2018-05-10T02:25:51.259Z,2.30
2018-05-10T02:28:19.599Z,2.03
2018-05-10T02:30:47.241Z,3.58
2018-05-10T02:33:14.904Z,2.10
2018-05-10T02:35:42.624Z,2.65
2018-05-10T02:38:11.020Z,3.35
2018-05-10T02:40:38.715Z,3.10
2018-05-10T02:43:07.085Z,2.60
2018-05-10T02:45:34.689Z,3.30
2018-05-10T02:48:02.215Z,3.58
2018-05-10T02:50:29.807Z,3.28
2018-05-10T02:52:58.135Z,3.35
2018-05-10T02:55:25.838Z,2.78
2018-05-10T02:57:53.547Z,2.53
2018-05-10T03:00:21.246Z,2.95
2018-05-10T03:02:48.915Z,3.72
2018-05-10T03:05:16.598Z,2.62
2018-05-10T03:07:44.324Z,2.37
2018-05-10T03:10:11.872Z,3.00
2018-05-10T03:12:39.448Z,2.42
2018-05-10T03:15:07.090Z,2.65
2018-05-10T03:17:34.697Z,2.37
2018-05-10T03:20:02.370Z,3.12
2018-05-10T03:22:29.986Z,2.87
2018-05-10T03:24:57.669Z,2.85
2018-05-10T03:27:26.191Z,2.65
2018-05-10T03:29:54.575Z,2.80
2018-05-10T03:32:22.196Z,2.42
2018-05-10T03:34:49.879Z,3.35
2018-05-10T03:37:18.298Z,2.10
2018-05-10T03:39:46.722Z,2.95
2018-05-10T03:42:14.416Z,2.62
2018-05-10T03:44:42.118Z,2.60
2018-05-10T03:47:09.900Z,2.78
2018-05-10T03:49:37.496Z,2.87
2018-05-10T03:52:05.833Z,3.20
2018-05-10T03:54:33.537Z,2.72
2018-05-10T03:57:01.152Z,2.85
2018-05-10T03:59:30.338Z,3.08
2018-05-10T04:01:57.895Z,2.40
2018-05-10T04:04:37.339Z,3.30
2018-05-10T04:07:16.864Z,2.70
2018-05-10T04:09:56.331Z,3.45
2018-05-10T04:12:24.718Z,3.30
2018-05-10T04:14:52.396Z,2.70
2018-05-10T04:17:20.016Z,3.53
2018-05-10T04:19:47.625Z,3.15
2018-05-10T04:22:15.261Z,3.00
2018-05-10T04:24:43.019Z,2.80
2018-05-10T04:27:11.432Z,2.92
2018-05-10T04:29:39.043Z,3.12
2018-05-10T04:32:06.723Z,2.60
2018-05-10T04:34:34.267Z,3.28
2018-05-10T04:37:01.988Z,2.80
2018-05-10T04:39:29.668Z,2.80
2018-05-10T04:41:57.344Z,3.42
2018-05-10T04:44:25.820Z,3.03
2018-05-10T04:46:53.523Z,3.00
2018-05-10T04:49:21.884Z,3.60
2018-05-10T04:51:49.554Z,2.85
2018-05-10T04:54:17.179Z,3.67
2018-05-10T04:56:44.878Z,3.53
2018-05-10T04:59:12.505Z,3.95
2018-05-10T05:01:40.204Z,3.03
2018-05-10T05:04:07.816Z,4.10
2018-05-10T05:06:36.182Z,3.20
2018-05-10T05:09:04.611Z,3.30
2018-05-10T05:11:33.041Z,3.65
2018-05-10T05:14:01.444Z,3.47
2018-05-10T05:16:29.198Z,4.40
2018-05-10T05:18:57.564Z,3.85
2018-05-10T05:21:26.003Z,4.10
2018-05-10T05:23:54.302Z,3.10
2018-05-10T05:26:22.823Z,4.25
2018-05-10T05:28:51.227Z,4.00
2018-05-10T05:31:18.859Z,4.15
2018-05-10T05:33:46.554Z,4.10
2018-05-10T05:36:14.211Z,4.15
2018-05-10T05:38:41.834Z,3.97
2018-05-10T05:41:09.549Z,4.32
2018-05-10T05:43:37.317Z,3.83
2018-05-10T05:46:04.831Z,4.32
2018-05-10T05:48:32.384Z,5.07
2018-05-10T05:51:00.085Z,4.85
2018-05-10T05:53:27.742Z,4.70
2018-05-10T05:55:55.469Z,4.55
2018-05-10T05:58:23.959Z,4.68
2018-05-10T06:00:51.557Z,4.40
2018-05-10T06:03:19.181Z,5.53
2018-05-10T06:05:46.874Z,5.10
2018-05-10T06:08:14.585Z,5.30
2018-05-10T06:10:42.332Z,5.53
2018-05-10T06:13:15.800Z,6.45
2018-05-10T06:15:43.487Z,6.28
2018-05-10T06:18:11.117Z,6.25
2018-05-10T06:20:38.785Z,5.50
2018-05-10T06:23:06.417Z,6.85
2018-05-10T06:25:35.159Z,5.62
2018-05-10T06:28:02.882Z,5.65
2018-05-10T06:30:30.545Z,5.80
2018-05-10T06:32:58.209Z,6.05
2018-05-10T06:35:25.777Z,5.72
2018-05-10T06:37:53.420Z,5.35
2018-05-10T06:40:21.049Z,6.97
2018-05-10T06:42:48.621Z,7.28
2018-05-10T06:45:16.217Z,7.30
2018-05-10T06:47:43.844Z,6.78
2018-05-10T06:50:12.264Z,7.85
2018-05-10T06:52:40.045Z,7.35
2018-05-10T06:55:07.671Z,8.35
2018-05-10T06:57:36.052Z,7.70
2018-05-10T07:00:03.745Z,8.20
2018-05-10T07:02:31.339Z,7.72
2018-05-10T07:04:58.842Z,9.35
2018-05-10T07:07:26.343Z,7.10
2018-05-10T07:09:54.048Z,8.02
2018-05-10T07:12:21.401Z,8.25
2018-05-10T07:14:48.919Z,8.50
2018-05-10T07:17:16.457Z,8.65
2018-05-10T07:19:43.959Z,9.73
2018-05-10T07:22:12.299Z,8.90
2018-05-10T07:24:39.828Z,7.97
2018-05-10T07:27:07.339Z,9.50
2018-05-10T07:29:34.846Z,8.18
2018-05-10T07:32:03.299Z,8.52
2018-05-10T07:34:31.635Z,8.80
2018-05-10T07:36:59.147Z,8.73
2018-05-10T07:39:27.421Z,9.43
2018-05-10T07:41:55.789Z,9.93
2018-05-10T07:44:23.393Z,8.82
2018-05-10T07:46:50.911Z,8.80
2018-05-10T07:49:19.191Z,9.82
2018-05-10T07:51:47.494Z,9.48
2018-05-10T07:54:15.027Z,10.57
2018-05-10T07:56:43.306Z,11.50
2018-05-10T07:59:11.594Z,10.30
2018-05-10T08:01:39.123Z,9.95
2018-05-10T08:04:06.674Z,10.80
2018-05-10T08:06:34.176Z,10.70
2018-05-10T08:09:01.719Z,9.52
2018-05-10T08:11:29.999Z,10.27
2018-05-10T08:13:58.276Z,9.40
2018-05-10T08:16:26.588Z,10.30
2018-05-10T08:18:54.088Z,9.20
2018-05-10T08:21:29.943Z,9.90
2018-05-10T08:23:57.450Z,10.20
2018-05-10T08:26:24.984Z,10.90
2018-05-10T08:28:53.344Z,9.87
2018-05-10T08:31:20.839Z,9.77
2018-05-10T08:33:48.350Z,10.20
2018-05-10T08:36:15.911Z,10.50
2018-05-10T08:38:44.931Z,9.80
2018-05-10T08:41:13.211Z,9.23
2018-05-10T08:43:41.587Z,10.07
2018-05-10T08:46:09.863Z,8.00
2018-05-10T08:48:38.179Z,8.77
2018-05-10T08:51:05.724Z,7.50
2018-05-10T08:53:33.231Z,8.20
2018-05-10T08:56:00.757Z,7.47
2018-05-10T08:58:28.262Z,7.23
2018-05-10T09:00:55.775Z,7.53
2018-05-10T09:03:23.295Z,8.43
2018-05-10T09:05:51.575Z,7.37
2018-05-10T09:08:19.852Z,7.33
2018-05-10T09:10:48.142Z,7.33
2018-05-10T09:13:15.674Z,7.27
2018-05-10T09:15:43.186Z,6.90
2018-05-10T09:18:10.711Z,6.97
2018-05-10T09:20:38.988Z,6.57
2018-05-10T09:23:06.488Z,6.67
2018-05-10T09:25:34.016Z,5.80
2018-05-10T09:28:01.544Z,6.40
2018-05-10T09:30:29.839Z,5.90
2018-05-10T09:32:58.124Z,5.70
2018-05-10T09:35:25.623Z,5.87
2018-05-10T09:37:53.181Z,6.00
2018-05-10T09:40:20.711Z,6.50
2018-05-10T09:42:48.215Z,5.70
2018-05-10T09:45:16.551Z,6.50
2018-05-10T09:47:44.078Z,6.13
2018-05-10T09:50:12.395Z,5.97
2018-05-10T09:52:39.928Z,6.20
2018-05-10T09:55:08.191Z,6.40
2018-05-10T09:57:36.486Z,6.20
2018-05-10T10:00:04.767Z,4.97
2018-05-10T10:02:32.279Z,6.17
2018-05-10T10:04:59.781Z,5.67
2018-05-10T10:07:27.307Z,6.47
2018-05-10T10:09:54.816Z,6.67
2018-05-10T10:12:22.310Z,5.43
2018-05-10T10:14:49.829Z,6.83
2018-05-10T10:17:18.307Z,4.77
2018-05-10T10:19:45.810Z,5.13
2018-05-10T10:22:13.458Z,4.67
2018-05-10T10:24:40.990Z,5.17
2018-05-10T10:27:08.628Z,4.60
2018-05-10T10:29:36.897Z,3.90
2018-05-10T10:32:05.195Z,4.75
2018-05-10T10:34:32.784Z,4.20
2018-05-10T10:46:52.194Z,6.20
2018-05-10T10:49:19.705Z,6.10
2018-05-10T10:51:47.235Z,5.80
2018-05-10T10:54:14.755Z,6.20
2018-05-10T10:56:43.172Z,6.77
2018-05-10T10:59:11.827Z,6.87
2018-05-10T11:01:39.452Z,6.83
2018-05-10T11:04:06.915Z,7.20
2018-05-10T11:06:34.427Z,6.83
2018-05-10T11:09:01.980Z,7.03
2018-05-10T11:11:29.481Z,7.87
2018-05-10T11:13:56.996Z,7.77
2018-05-10T11:16:24.535Z,6.83
2018-05-10T11:18:52.865Z,5.90
2018-05-10T11:21:20.446Z,5.67
2018-05-10T11:23:47.983Z,6.73
2018-05-10T11:26:15.936Z,7.07
2018-05-10T11:28:43.436Z,6.80
2018-05-10T11:31:10.950Z,5.50
2018-05-10T11:33:38.455Z,6.03
2018-05-10T11:36:05.965Z,6.40
2018-05-10T11:38:33.500Z,5.57
2018-05-10T11:41:01.770Z,5.83
2018-05-10T11:43:32.108Z,5.43
2018-05-10T11:45:59.930Z,5.83
2018-05-10T11:48:27.449Z,5.33
2018-05-10T11:50:55.110Z,5.57
2018-05-10T11:53:22.731Z,6.37
2018-05-10T11:55:50.239Z,5.40
2018-05-10T11:58:19.380Z,6.23
2018-05-10T12:00:48.035Z,6.07
2018-05-10T12:03:15.819Z,6.10
2018-05-10T12:05:43.409Z,5.97
2018-05-10T12:08:10.883Z,6.57
2018-05-10T12:10:38.388Z,6.00
2018-05-10T12:13:05.902Z,5.60
2018-05-10T12:15:34.925Z,6.00
2018-05-10T12:18:02.531Z,5.50
2018-05-10T12:20:31.048Z,6.80
2018-05-10T12:22:58.554Z,6.37
2018-05-10T12:25:26.125Z,5.83
2018-05-10T12:27:53.598Z,6.23
2018-05-10T12:30:22.051Z,6.47
2018-05-10T12:32:51.036Z,7.20
2018-05-10T12:35:19.898Z,6.53
2018-05-10T12:37:47.443Z,7.73
2018-05-10T12:40:15.992Z,7.60
2018-05-10T12:42:43.899Z,6.70
2018-05-10T12:45:12.231Z,7.73
2018-05-10T12:47:40.491Z,7.17
2018-05-10T12:50:08.995Z,8.27
2018-05-10T12:52:37.457Z,6.87
2018-05-10T12:55:05.904Z,6.40
2018-05-10T12:57:34.332Z,6.20
2018-05-10T13:00:01.905Z,5.50
2018-05-10T13:02:30.198Z,5.37
2018-05-10T13:04:57.703Z,5.70
2018-05-10T13:07:25.242Z,5.30
2018-05-10T13:09:55.231Z,4.90
2018-05-10T13:12:24.787Z,6.10
2018-05-10T13:14:56.286Z,5.47
2018-05-10T13:17:23.900Z,5.03
2018-05-10T13:19:56.167Z,5.20
2018-05-10T13:22:25.918Z,5.20
2018-05-10T13:24:57.711Z,5.10
2018-05-10T13:27:28.387Z,5.60
2018-05-10T13:29:59.163Z,4.80
2018-05-10T13:32:27.464Z,4.03
2018-05-10T13:34:54.980Z,4.97
2018-05-10T13:37:23.575Z,4.30
2018-05-10T13:39:52.130Z,3.87
2018-05-10T13:42:19.669Z,3.57
2018-05-10T13:44:47.252Z,4.40
2018-05-10T13:47:14.848Z,4.57
2018-05-10T13:49:43.544Z,5.60
2018-05-10T13:52:11.164Z,4.20
2018-05-10T13:59:37.048Z,4.90
2018-05-10T14:02:07.352Z,4.73
2018-05-10T14:04:35.740Z,5.57
2018-05-10T14:07:03.204Z,5.70
2018-05-10T14:09:30.736Z,7.10
2018-05-10T14:11:58.710Z,5.60
2018-05-10T14:14:26.336Z,6.27
2018-05-10T14:16:53.851Z,5.73
2018-05-10T14:19:22.131Z,7.13
2018-05-10T14:21:50.397Z,5.80
2018-05-10T14:24:18.683Z,5.10
2018-05-10T14:26:46.959Z,5.17
2018-05-10T14:29:15.230Z,5.63
2018-05-10T14:31:43.044Z,6.07
2018-05-10T14:34:10.607Z,6.00
2018-05-10T14:36:38.149Z,4.70
2018-05-10T14:39:05.638Z,6.17
2018-05-10T14:41:33.207Z,6.20
2018-05-10T14:44:00.733Z,5.67
2018-05-10T14:46:28.239Z,6.87
2018-05-10T14:48:55.775Z,7.00
2018-05-10T14:51:23.294Z,5.90
2018-05-10T14:53:50.791Z,6.23
2018-05-10T14:56:18.299Z,6.47
2018-05-10T14:58:45.807Z,6.20
2018-05-10T15:01:14.379Z,6.10
2018-05-10T15:03:42.078Z,6.93
2018-05-10T15:06:10.705Z,7.80
2018-05-10T15:08:38.495Z,6.37
2018-05-10T15:11:06.933Z,6.17
2018-05-10T15:13:34.520Z,6.87
2018-05-10T15:16:03.015Z,7.03
2018-05-10T15:18:30.668Z,6.80
2018-05-10T15:20:58.323Z,7.67
2018-05-10T15:23:25.958Z,7.90
2018-05-10T15:25:53.629Z,5.53
2018-05-10T15:28:22.110Z,5.63
2018-05-10T15:30:49.869Z,6.00
2018-05-10T15:33:17.476Z,7.80
2018-05-10T15:35:45.378Z,7.80
2018-05-10T15:38:13.101Z,7.23
2018-05-10T15:40:40.900Z,6.80
2018-05-10T15:43:08.663Z,7.30
2018-05-10T15:45:39.024Z,8.00
2018-05-10T15:48:09.286Z,7.27
2018-05-10T15:50:38.070Z,7.63
2018-05-10T15:53:06.294Z,8.60
2018-05-10T15:55:34.712Z,8.93
2018-05-10T15:58:02.578Z,9.57
2018-05-10T16:00:30.501Z,8.87
2018-05-10T16:02:58.166Z,10.37
2018-05-10T16:05:27.438Z,10.90
2018-05-10T16:07:56.442Z,9.90
2018-05-10T16:10:32.152Z,9.77
2018-05-10T16:12:59.806Z,10.50
2018-05-10T16:15:27.460Z,10.03
2018-05-10T16:17:55.973Z,10.20
2018-05-10T16:20:23.692Z,10.93
2018-05-10T16:22:52.109Z,9.77
2018-05-10T16:25:19.927Z,11.53
2018-05-10T16:27:50.194Z,10.97
2018-05-10T16:30:18.938Z,11.03
2018-05-10T16:32:48.382Z,9.50
2018-05-10T16:35:16.476Z,8.63
2018-05-10T16:37:44.817Z,8.80
2018-05-10T16:40:13.308Z,9.57
2018-05-10T16:42:41.031Z,12.63
2018-05-10T16:45:09.765Z,12.13
2018-05-10T16:47:37.642Z,12.70
2018-05-10T16:50:05.627Z,11.73
2018-05-10T16:52:33.463Z,12.97
2018-05-10T16:55:01.314Z,11.47
2018-05-10T16:57:29.073Z,12.17
2018-05-10T16:59:56.932Z,12.30
2018-05-10T17:02:24.611Z,13.67
2018-05-10T17:04:52.459Z,15.93
2018-05-10T17:07:20.219Z,15.83
2018-05-10T17:09:48.239Z,16.07
2018-05-10T17:12:15.952Z,17.93
2018-05-10T17:14:43.705Z,14.83
2018-05-10T17:17:11.541Z,14.20
2018-05-10T17:19:39.833Z,14.70
2018-05-10T17:22:08.318Z,14.63
2018-05-10T17:24:36.728Z,13.80
2018-05-10T17:27:04.860Z,14.10
2018-05-10T17:29:33.486Z,13.57
2018-05-10T17:32:02.033Z,14.00
2018-05-10T17:34:29.728Z,14.30
2018-05-10T17:36:57.576Z,14.23
2018-05-10T17:39:25.581Z,12.90
2018-05-10T17:41:53.691Z,14.83
2018-05-10T17:44:21.469Z,13.43
2018-05-10T17:46:49.569Z,14.20
2018-05-10T17:49:20.276Z,13.35
2018-05-10T17:51:47.966Z,14.20
2018-05-10T17:54:16.469Z,14.30
2018-05-10T17:56:44.186Z,13.25
2018-05-10T17:59:11.930Z,13.85
2018-05-10T18:01:39.951Z,14.00
2018-05-10T18:04:08.252Z,12.60
2018-05-10T18:06:36.211Z,12.80
2018-05-10T18:09:04.729Z,12.70
2018-05-10T18:11:32.432Z,10.52
2018-05-10T18:14:01.741Z,10.40
2018-05-10T18:16:29.497Z,11.48
2018-05-10T18:18:57.358Z,9.13
2018-05-10T18:21:26.532Z,8.45
2018-05-10T18:26:56.457Z,7.57
2018-05-10T18:29:24.156Z,7.87
2018-05-10T18:31:51.765Z,7.37
2018-05-10T18:34:19.552Z,6.77
2018-05-10T18:36:48.240Z,5.90
2018-05-10T18:39:16.154Z,6.33
2018-05-10T18:41:43.784Z,5.73
2018-05-10T18:44:11.557Z,5.40
2018-05-10T18:46:39.237Z,6.50
2018-05-10T18:49:07.352Z,5.93
2018-05-10T18:51:35.943Z,6.28
2018-05-10T18:54:03.723Z,6.78
2018-05-10T18:56:31.525Z,6.20
2018-05-10T18:58:59.935Z,5.93
2018-05-10T19:01:27.834Z,5.25
2018-05-10T19:03:55.518Z,4.78
2018-05-10T19:06:23.898Z,4.93
2018-05-10T19:08:51.628Z,4.93
2018-05-10T19:11:20.369Z,4.85
2018-05-10T19:13:47.906Z,5.25
2018-05-10T19:16:16.971Z,4.82
2018-05-10T19:18:44.527Z,4.40
2018-05-10T19:21:12.042Z,5.93
2018-05-10T19:23:40.391Z,5.37
2018-05-10T19:26:09.188Z,5.60
2018-05-10T19:28:37.611Z,4.80
2018-05-10T19:31:05.131Z,5.28
2018-05-10T19:33:32.698Z,5.20
2018-05-10T19:36:00.206Z,4.90
2018-05-10T19:38:27.723Z,4.87
2018-05-10T19:40:56.792Z,5.40
2018-05-10T19:43:24.344Z,5.47
2018-05-10T19:45:51.846Z,5.45
2018-05-10T19:48:20.127Z,5.00
2018-05-10T19:50:47.688Z,4.05
2018-05-10T19:53:18.082Z,4.85
2018-05-10T19:55:45.607Z,4.75
2018-05-10T19:58:13.114Z,4.60
2018-05-10T20:00:41.380Z,4.82
2018-05-10T20:03:08.898Z,5.55
2018-05-10T20:05:36.415Z,5.00
2018-05-10T20:08:04.686Z,4.85
2018-05-10T20:10:33.548Z,4.60
2018-05-10T20:13:01.047Z,5.20
2018-05-10T20:15:29.316Z,5.20
2018-05-10T20:17:57.604Z,4.80
2018-05-10T20:20:25.099Z,4.62
2018-05-10T20:22:52.614Z,5.55
2018-05-10T20:25:20.996Z,5.62
2018-05-10T20:27:49.383Z,4.93
2018-05-10T20:30:17.079Z,5.60
2018-05-10T20:32:45.604Z,5.85
2018-05-10T20:35:13.248Z,4.53
2018-05-10T20:37:40.857Z,5.28
2018-05-10T20:40:08.523Z,6.20
2018-05-10T20:42:36.262Z,4.90
2018-05-10T20:45:04.639Z,5.68
2018-05-10T20:47:32.995Z,5.40
2018-05-10T20:50:01.485Z,5.50
2018-05-10T20:52:29.900Z,5.95
2018-05-10T20:58:03.621Z,5.45
2018-05-10T21:00:31.219Z,6.40
2018-05-10T21:02:58.843Z,6.97
2018-05-10T21:05:26.547Z,5.72
2018-05-10T21:07:54.382Z,5.43
2018-05-10T21:10:21.979Z,5.10
2018-05-10T21:12:50.717Z,6.30
2018-05-10T21:15:18.512Z,5.87
2018-05-10T21:17:46.151Z,5.60
2018-05-10T21:20:13.756Z,5.95
2018-05-10T21:22:41.356Z,4.57
2018-05-10T21:25:08.998Z,6.07
2018-05-10T21:27:36.560Z,4.95
2018-05-10T21:30:05.078Z,5.60
2018-05-10T21:32:33.049Z,5.28
2018-05-10T21:35:01.953Z,7.50
2018-05-10T21:37:29.722Z,5.75
2018-05-10T21:39:57.342Z,5.75
2018-05-10T21:42:24.991Z,5.80
2018-05-10T21:44:53.511Z,6.53
2018-05-10T21:47:21.268Z,6.07
2018-05-10T21:50:00.823Z,5.93
2018-05-10T21:52:28.457Z,5.50
2018-05-10T21:54:56.925Z,6.12
2018-05-10T21:57:24.533Z,7.43
2018-05-10T21:59:52.115Z,6.50
2018-05-10T22:02:22.268Z,6.15
2018-05-10T22:04:50.624Z,5.72
2018-05-10T22:07:18.318Z,6.07
2018-05-10T22:09:46.789Z,6.60
2018-05-10T22:12:14.561Z,6.90
2018-05-10T22:14:42.269Z,6.78
2018-05-10T22:17:10.001Z,6.20
2018-05-10T22:19:37.624Z,7.05
2018-05-10T22:22:05.359Z,6.10
2018-05-10T22:24:33.013Z,5.85
2018-05-10T22:27:01.450Z,6.35
2018-05-10T22:29:31.248Z,5.85
2018-05-10T22:31:59.080Z,6.05
2018-05-10T22:34:26.907Z,6.72
2018-05-10T22:36:54.536Z,5.93
2018-05-10T22:39:22.806Z,6.93
2018-05-10T22:41:50.767Z,5.75
2018-05-10T22:44:18.489Z,5.50
2018-05-10T22:46:46.956Z,5.78
2018-05-10T22:49:15.559Z,6.25
2018-05-10T22:51:43.318Z,6.72
2018-05-10T22:54:11.690Z,7.45
2018-05-10T22:56:39.295Z,6.45
2018-05-10T22:59:07.829Z,6.10
2018-05-10T23:01:35.575Z,6.90
2018-05-10T23:04:03.324Z,6.30
2018-05-10T23:06:30.903Z,7.12
2018-05-10T23:08:59.309Z,6.90
2018-05-10T23:11:26.946Z,5.80
2018-05-10T23:13:55.355Z,7.45
2018-05-10T23:16:23.194Z,6.57
2018-05-10T23:18:50.868Z,6.47
2018-05-10T23:21:18.456Z,6.65
2018-05-10T23:23:46.070Z,8.02
2018-05-10T23:26:13.757Z,6.47
2018-05-10T23:28:41.493Z,6.90
2018-05-10T23:31:10.049Z,8.27
2018-05-10T23:33:37.745Z,7.90
2018-05-10T23:36:06.214Z,7.65
2018-05-10T23:38:33.839Z,7.90
2018-05-10T23:41:01.577Z,7.32
2018-05-10T23:43:29.299Z,7.10
2018-05-10T23:45:57.050Z,8.63
2018-05-10T23:48:24.700Z,7.40
2018-05-10T23:50:52.370Z,7.72
2018-05-10T23:53:20.093Z,6.68
2018-05-10T23:55:47.868Z,6.45
2018-05-10T23:58:15.451Z,7.22
